Time;durP1;ratioP1;P1;durP2;ratioP2;P2;SDS_P1;SDS_P2;PMS_P1;PMS_P2;Temp;Humidity;BMP_temperature;BMP_pressure;BME280_temperature;BME280_humidity;BME280_pressure;Samples;Min_cycle;Max_cycle;Signal;HPM_P1;HPM_P2
2023/09/22 00:01:33;;;;;;;27.73;13.82;;;;;;;10.86;100.00;99783.63;5096084;28;20032;-66
2023/09/22 00:03:59;;;;;;;27.73;14.00;;;;;;;10.84;100.00;99781.03;5095680;28;20056;-64
2023/09/22 00:06:24;;;;;;;26.05;12.43;;;;;;;10.81;100.00;99781.94;5095606;28;20441;-67
2023/09/22 00:08:49;;;;;;;26.38;12.27;;;;;;;10.74;100.00;99776.75;5095814;28;20070;-72
2023/09/22 00:11:15;;;;;;;27.08;12.30;;;;;;;10.64;100.00;99778.63;5095519;28;20467;-71
2023/09/22 00:13:41;;;;;;;25.48;12.30;;;;;;;10.58;100.00;99784.00;5095678;28;20036;-69
2023/09/22 00:16:06;;;;;;;26.05;11.80;;;;;;;10.58;100.00;99784.00;5095338;28;20043;-71
2023/09/22 00:18:32;;;;;;;26.92;12.35;;;;;;;10.56;100.00;99785.81;5095353;28;20040;-67
2023/09/22 00:20:57;;;;;;;24.75;11.30;;;;;;;10.49;100.00;99781.47;5095489;28;20107;-67
2023/09/22 00:23:22;;;;;;;25.83;11.65;;;;;;;10.46;100.00;99771.81;5094970;28;20112;-64
2023/09/22 00:25:48;;;;;;;26.48;11.70;;;;;;;10.41;100.00;99778.91;5095036;28;20111;-64
2023/09/22 00:28:13;;;;;;;26.80;11.88;;;;;;;10.39;100.00;99778.94;5095326;28;20036;-65
2023/09/22 00:30:38;;;;;;;25.52;11.57;;;;;;;10.38;100.00;99786.88;5095030;28;20535;-64
2023/09/22 00:33:04;;;;;;;26.23;11.77;;;;;;;10.38;100.00;99789.53;5094985;28;20527;-64
2023/09/22 00:35:30;;;;;;;27.00;11.27;;;;;;;10.37;100.00;99795.69;5095259;28;20024;-65
2023/09/22 00:37:55;;;;;;;27.13;12.05;;;;;;;10.36;100.00;99794.81;5093724;28;20025;-64
2023/09/22 00:40:20;;;;;;;26.45;11.80;;;;;;;10.33;100.00;99792.19;5095027;28;20039;-64
2023/09/22 00:42:45;;;;;;;27.30;12.00;;;;;;;10.32;100.00;99797.50;5095438;28;20028;-64
2023/09/22 00:45:13;;;;;;;27.25;12.25;;;;;;;10.26;100.00;99787.88;5095064;28;20031;-65
2023/09/22 00:47:38;;;;;;;27.98;12.23;;;;;;;10.23;100.00;99794.03;5095007;28;20421;-64
2023/09/22 00:50:07;;;;;;;28.35;12.40;;;;;;;10.24;100.00;99794.94;5094786;28;20028;-64
2023/09/22 00:52:32;;;;;;;29.10;12.70;;;;;;;10.26;100.00;99777.31;5094705;28;20031;-64
2023/09/22 00:54:59;;;;;;;31.30;12.95;;;;;;;10.25;100.00;99772.91;5094888;28;20020;-64
2023/09/22 00:57:25;;;;;;;28.80;13.48;;;;;;;10.20;100.00;99767.66;5094789;28;20024;-64
2023/09/22 00:59:51;;;;;;;32.50;13.63;;;;;;;10.20;100.00;99774.72;5094521;28;20035;-64
2023/09/22 01:02:16;;;;;;;31.83;12.98;;;;;;;10.15;100.00;99773.91;5094652;28;20039;-65
2023/09/22 01:04:42;;;;;;;30.02;12.68;;;;;;;10.16;100.00;99778.28;5094621;28;20375;-64
2023/09/22 01:07:09;;;;;;;31.75;13.88;;;;;;;10.14;100.00;99782.72;5093277;28;20020;-64
2023/09/22 01:09:37;;;;;;;33.15;13.70;;;;;;;10.18;100.00;99797.63;5094439;28;20513;-75
2023/09/22 01:12:03;;;;;;;32.67;13.77;;;;;;;10.18;100.00;99787.97;5094577;28;20035;-72
2023/09/22 01:14:29;;;;;;;32.28;13.68;;;;;;;10.14;100.00;99772.16;5094258;28;20044;-68
2023/09/22 01:16:54;;;;;;;34.38;14.05;;;;;;;10.10;100.00;99776.59;5094448;28;20059;-71
2023/09/22 01:19:20;;;;;;;33.15;14.02;;;;;;;10.08;100.00;99778.38;5094353;28;20039;-71
2023/09/22 01:21:49;;;;;;;33.47;14.10;;;;;;;10.08;100.00;99781.88;5094171;28;20028;-69
2023/09/22 01:24:15;;;;;;;35.08;14.68;;;;;;;10.05;100.00;99779.28;5090438;28;20035;-73
2023/09/22 01:26:40;;;;;;;35.55;14.60;;;;;;;10.03;100.00;99775.81;5094026;28;20023;-72
2023/09/22 01:29:07;;;;;;;33.90;14.35;;;;;;;10.03;100.00;99767.88;5093927;28;20036;-71
2023/09/22 01:31:33;;;;;;;34.85;14.55;;;;;;;10.05;100.00;99767.88;5094490;28;20432;-73
2023/09/22 01:34:01;;;;;;;35.35;14.45;;;;;;;10.01;100.00;99763.50;5093911;28;20032;-68
2023/09/22 01:36:26;;;;;;;33.65;14.68;;;;;;;9.99;100.00;99755.59;5093256;28;20032;-72
2023/09/22 01:38:51;;;;;;;37.47;14.80;;;;;;;9.98;100.00;99759.13;5093988;28;20088;-72
2023/09/22 01:41:17;;;;;;;36.20;15.60;;;;;;;10.02;100.00;99758.19;5093779;28;20020;-73
2023/09/22 01:43:42;;;;;;;35.05;15.13;;;;;;;9.97;100.00;99760.00;5093700;28;20039;-73
2023/09/22 01:46:07;;;;;;;36.40;15.20;;;;;;;10.04;100.00;99755.53;5093737;28;20038;-70
2023/09/22 01:48:33;;;;;;;38.75;15.60;;;;;;;10.04;100.00;99763.47;5093588;28;20036;-71
2023/09/22 01:51:05;;;;;;;38.78;16.20;;;;;;;10.08;100.00;99758.13;5093721;28;20046;-68
2023/09/22 01:53:30;;;;;;;39.83;15.70;;;;;;;10.09;100.00;99774.84;5093652;28;20433;-67
2023/09/22 01:55:55;;;;;;;39.65;15.75;;;;;;;10.09;100.00;99778.38;5093551;28;20024;-66
2023/09/22 01:58:21;;;;;;;40.53;16.08;;;;;;;10.08;100.00;99773.97;5093702;28;20051;-66
2023/09/22 02:00:48;;;;;;;38.85;16.25;;;;;;;10.08;100.00;99770.47;5093821;28;20055;-68
2023/09/22 02:03:14;;;;;;;38.58;15.75;;;;;;;10.06;100.00;99765.19;5093676;28;20451;-67
2023/09/22 02:05:39;;;;;;;40.45;16.60;;;;;;;10.06;100.00;99767.84;5092051;28;20158;-68
2023/09/22 02:08:05;;;;;;;37.60;15.73;;;;;;;10.07;100.00;99761.66;5093744;28;20044;-66
2023/09/22 02:10:31;;;;;;;38.88;15.80;;;;;;;10.04;100.00;99756.41;5093387;28;20035;-66
2023/09/22 02:12:56;;;;;;;37.90;15.63;;;;;;;10.04;100.00;99761.69;5093152;28;20386;-66
2023/09/22 02:15:22;;;;;;;38.30;15.32;;;;;;;10.06;100.00;99759.91;5093046;28;20132;-67
2023/09/22 02:17:47;;;;;;;36.97;15.75;;;;;;;10.10;100.00;99771.31;5093097;28;20078;-68
2023/09/22 02:20:22;;;;;;;36.45;14.93;;;;;;;10.10;100.00;99771.31;5093080;28;20032;-67
2023/09/22 02:22:48;;;;;;;38.42;15.93;;;;;;;10.10;100.00;99771.31;5089489;28;20547;-66
2023/09/22 02:25:15;;;;;;;39.08;15.70;;;;;;;10.11;100.00;99771.28;5088924;28;20035;-67
2023/09/22 02:27:41;;;;;;;37.80;15.63;;;;;;;10.13;100.00;99773.91;5092949;28;20034;-66
2023/09/22 02:30:08;;;;;;;39.75;16.15;;;;;;;10.15;100.00;99777.44;5093223;28;20036;-66
2023/09/22 02:32:34;;;;;;;40.05;15.85;;;;;;;10.19;100.00;99770.34;5092960;28;20039;-66
2023/09/22 02:34:59;;;;;;;38.50;15.32;;;;;;;10.21;100.00;99777.34;5092858;28;20103;-64
2023/09/22 02:37:24;;;;;;;38.58;15.90;;;;;;;10.21;100.00;99765.94;5093122;28;20036;-65
2023/09/22 02:39:50;;;;;;;39.17;15.55;;;;;;;10.21;100.00;99763.28;5092750;28;20032;-64
2023/09/22 02:42:15;;;;;;;40.40;16.05;;;;;;;10.22;100.00;99765.00;5092789;28;20028;-64
2023/09/22 02:44:41;;;;;;;40.30;16.50;;;;;;;10.24;100.00;99764.13;5092994;28;20081;-63
2023/09/22 02:47:06;;;;;;;39.33;16.45;;;;;;;10.27;100.00;99768.50;5092452;28;20024;-64
2023/09/22 02:49:31;;;;;;;40.40;16.42;;;;;;;10.26;100.00;99766.72;5092838;28;20039;-63
2023/09/22 02:51:57;;;;;;;40.22;16.10;;;;;;;10.26;100.00;99764.09;5092908;28;20479;-65
2023/09/22 02:54:22;;;;;;;40.30;15.85;;;;;;;10.27;100.00;99773.78;5092576;28;20036;-64
2023/09/22 02:56:48;;;;;;;39.38;16.05;;;;;;;10.26;100.00;99772.88;5091547;28;20056;-64
2023/09/22 02:59:14;;;;;;;40.90;16.40;;;;;;;10.28;100.00;99768.47;5092575;28;20547;-64
2023/09/22 03:01:41;;;;;;;40.65;16.15;;;;;;;10.28;100.00;99767.56;5092604;28;20387;-64
2023/09/22 03:04:09;;;;;;;38.05;15.32;;;;;;;10.30;100.00;99765.81;5093040;28;20377;-64
2023/09/22 03:06:35;;;;;;;38.10;16.17;;;;;;;10.32;100.00;99766.66;5092528;28;20189;-64
2023/09/22 03:09:00;;;;;;;37.28;15.45;;;;;;;10.35;100.00;99766.66;5092497;28;20383;-65
2023/09/22 03:11:26;;;;;;;35.30;15.18;;;;;;;10.30;100.00;99768.44;5092710;28;20028;-65
2023/09/22 03:13:51;;;;;;;37.08;15.27;;;;;;;10.26;100.00;99766.72;5091513;28;20028;-64
2023/09/22 03:16:17;;;;;;;37.53;15.48;;;;;;;10.29;100.00;99771.97;5092209;28;20568;-64
2023/09/22 03:18:42;;;;;;;36.72;15.25;;;;;;;10.28;100.00;99778.16;5092684;28;20029;-65
2023/09/22 03:21:08;;;;;;;36.53;15.77;;;;;;;10.29;100.00;99783.44;5092447;28;20115;-70
2023/09/22 03:23:33;;;;;;;35.85;15.00;;;;;;;10.31;100.00;99778.13;5092507;28;20032;-73
2023/09/22 03:26:03;;;;;;;36.85;15.00;;;;;;;10.34;100.00;99775.50;5092812;28;20036;-69
2023/09/22 03:28:28;;;;;;;38.67;15.25;;;;;;;10.38;100.00;99771.91;5092428;28;20039;-66
2023/09/22 03:30:53;;;;;;;34.50;15.05;;;;;;;10.40;100.00;99759.56;5092279;28;20032;-68
2023/09/22 03:33:18;;;;;;;35.30;14.68;;;;;;;10.43;100.00;99775.38;5092847;28;20032;-72
2023/09/22 03:35:46;;;;;;;36.85;15.05;;;;;;;10.45;100.00;99773.56;5092292;28;20059;-71
2023/09/22 03:38:15;;;;;;;35.08;14.48;;;;;;;10.51;100.00;99772.63;5092409;28;20081;-70
2023/09/22 03:40:43;;;;;;;33.05;14.15;;;;;;;10.53;100.00;99777.88;5092439;28;20040;-71
2023/09/22 03:43:08;;;;;;;32.65;14.05;;;;;;;10.59;100.00;99780.47;5092159;28;20031;-71
2023/09/22 03:45:34;;;;;;;32.63;13.50;;;;;;;10.59;100.00;99776.06;5092199;28;20040;-71
2023/09/22 03:48:00;;;;;;;30.83;13.43;;;;;;;10.60;100.00;99783.09;5092654;28;20024;-67
2023/09/22 03:50:25;;;;;;;32.05;13.50;;;;;;;10.61;100.00;99778.69;5092265;28;20039;-70
2023/09/22 03:52:50;;;;;;;30.38;12.88;;;;;;;10.59;100.00;99775.19;5092187;28;20111;-68
2023/09/22 03:55:16;;;;;;;28.65;11.95;;;;;;;10.59;100.00;99785.75;5092422;28;20032;-66
2023/09/22 03:57:41;;;;;;;29.00;12.32;;;;;;;10.58;100.00;99778.72;5092313;28;20035;-67
2023/09/22 04:00:17;;;;;;;28.70;12.20;;;;;;;10.57;100.00;99788.44;5094502;28;20115;-68
2023/09/22 04:02:42;;;;;;;30.67;11.68;;;;;;;10.62;100.00;99791.00;5095911;28;20020;-66
2023/09/22 04:05:08;;;;;;;27.10;12.02;;;;;;;10.68;100.00;99790.91;5095760;28;20035;-66
2023/09/22 04:07:35;;;;;;;27.25;11.68;;;;;;;10.73;100.00;99782.94;5095838;28;20032;-67
2023/09/22 04:10:02;;;;;;;26.35;11.30;;;;;;;10.77;100.00;99785.50;5095889;28;20032;-64
2023/09/22 04:12:27;;;;;;;26.73;10.85;;;;;;;10.81;100.00;99781.94;5095565;28;20032;-65
2023/09/22 04:14:52;;;;;;;25.98;10.90;;;;;;;10.84;100.00;99785.44;5095155;28;20123;-64
2023/09/22 04:17:18;;;;;;;26.60;11.05;;;;;;;10.78;100.00;99781.97;5095693;28;20039;-64
2023/09/22 04:19:43;;;;;;;26.63;10.32;;;;;;;10.77;100.00;99789.94;5095287;28;20036;-64
2023/09/22 04:22:12;;;;;;;25.90;10.18;;;;;;;10.73;100.00;99791.75;5095335;28;20020;-64
2023/09/22 04:24:40;;;;;;;23.55;10.25;;;;;;;10.67;100.00;99790.94;5094318;28;20035;-64
2023/09/22 04:27:08;;;;;;;24.42;9.85;;;;;;;10.61;100.00;99800.69;5095412;28;20032;-64
2023/09/22 04:29:36;;;;;;;24.25;10.32;;;;;;;10.59;100.00;99801.63;5095172;28;20134;-64
2023/09/22 04:32:04;;;;;;;24.13;10.43;;;;;;;10.53;100.00;99801.66;5095313;28;20032;-64
2023/09/22 04:34:30;;;;;;;23.60;10.18;;;;;;;10.45;100.00;99801.78;5095086;28;20031;-64
2023/09/22 04:36:55;;;;;;;25.27;10.45;;;;;;;10.42;100.00;99794.75;5095080;28;20020;-64
2023/09/22 04:39:21;;;;;;;23.70;9.57;;;;;;;10.41;100.00;99800.06;5095115;28;20026;-64
2023/09/22 04:41:47;;;;;;;23.23;9.95;;;;;;;10.36;100.00;99802.75;5094991;28;20115;-64
2023/09/22 04:44:12;;;;;;;23.70;9.93;;;;;;;10.34;100.00;99799.25;5094967;28;20102;-64
2023/09/22 04:46:38;;;;;;;23.35;9.85;;;;;;;10.36;100.00;99799.25;5095018;28;20029;-64
2023/09/22 04:49:03;;;;;;;24.27;10.13;;;;;;;10.31;100.00;99801.91;5095015;28;20039;-64
2023/09/22 04:51:28;;;;;;;24.38;10.20;;;;;;;10.27;100.00;99800.19;5094615;28;20024;-64
2023/09/22 04:53:54;;;;;;;24.77;10.40;;;;;;;10.28;100.00;99802.81;5095117;28;20028;-65
2023/09/22 04:56:21;;;;;;;24.85;10.40;;;;;;;10.21;100.00;99803.75;5094687;28;20076;-66
2023/09/22 04:58:47;;;;;;;25.15;10.50;;;;;;;10.24;100.00;99803.72;5094722;28;20032;-68
2023/09/22 05:01:14;;;;;;;25.77;10.57;;;;;;;10.31;100.00;99801.91;5094780;28;20047;-66
2023/09/22 05:03:40;;;;;;;22.98;10.70;;;;;;;10.31;100.00;99799.28;5094440;28;20030;-68
2023/09/22 05:06:06;;;;;;;25.20;10.55;;;;;;;10.27;100.00;99805.47;5094751;28;20032;-66
2023/09/22 05:08:33;;;;;;;25.08;10.85;;;;;;;10.25;100.00;99805.50;5094644;28;20028;-66
2023/09/22 05:10:59;;;;;;;23.80;10.77;;;;;;;10.31;100.00;99809.84;5094251;28;20056;-70
2023/09/22 05:13:24;;;;;;;25.30;10.70;;;;;;;10.33;100.00;99815.09;5094558;28;20036;-68
2023/09/22 05:15:51;;;;;;;25.02;10.60;;;;;;;10.35;100.00;99816.84;5094165;28;20456;-66
2023/09/22 05:18:16;;;;;;;25.08;10.48;;;;;;;10.31;100.00;99823.03;5094232;28;20068;-66
2023/09/22 05:20:41;;;;;;;25.20;10.23;;;;;;;10.22;100.00;99826.66;5094408;28;20024;-67
2023/09/22 05:23:08;;;;;;;22.80;9.85;;;;;;;10.20;100.00;99823.13;5094158;28;20024;-66
2023/09/22 05:25:39;;;;;;;22.50;9.90;;;;;;;10.30;100.00;99824.78;5094112;28;20028;-69
2023/09/22 05:28:05;;;;;;;22.25;9.75;;;;;;;10.32;100.00;99834.47;5094154;28;20020;-70
2023/09/22 05:30:31;;;;;;;24.67;10.65;;;;;;;10.30;100.00;99834.50;5094157;28;20042;-66
2023/09/22 05:32:56;;;;;;;24.05;10.30;;;;;;;10.36;100.00;99836.22;5094147;28;20174;-68
2023/09/22 05:35:23;;;;;;;23.00;9.68;;;;;;;10.35;100.00;99835.34;5094294;28;20099;-66
2023/09/22 05:37:52;;;;;;;23.88;10.23;;;;;;;10.33;100.00;99838.88;5093870;28;20062;-64
2023/09/22 05:40:17;;;;;;;25.45;10.80;;;;;;;10.31;100.00;99844.19;5093738;28;20036;-64
2023/09/22 05:42:43;;;;;;;26.48;10.60;;;;;;;10.32;100.00;99845.03;5094033;28;20047;-65
2023/09/22 05:45:09;;;;;;;23.63;10.13;;;;;;;10.37;100.00;99844.13;5092531;28;20024;-63
2023/09/22 05:47:35;;;;;;;23.92;10.50;;;;;;;10.37;100.00;99857.34;5093844;28;20490;-64
2023/09/22 05:50:04;;;;;;;24.67;10.55;;;;;;;10.41;100.00;99868.75;5093609;28;20116;-64
2023/09/22 05:52:30;;;;;;;22.98;9.90;;;;;;;10.45;100.00;99855.47;5093509;28;20027;-64
2023/09/22 05:54:56;;;;;;;22.77;10.10;;;;;;;10.40;100.00;99853.81;5093463;28;20367;-64
2023/09/22 05:57:21;;;;;;;24.25;9.93;;;;;;;10.39;100.00;99846.75;5091515;28;20089;-62
2023/09/22 05:59:47;;;;;;;23.98;9.82;;;;;;;10.34;100.00;99854.75;5088706;28;20514;-61
2023/09/22 06:02:12;;;;;;;21.92;9.85;;;;;;;10.37;100.00;99856.44;5089210;28;20123;-61
2023/09/22 06:04:38;;;;;;;22.80;10.30;;;;;;;10.38;100.00;99867.03;5092793;28;20031;-63
2023/09/22 06:07:03;;;;;;;23.90;10.43;;;;;;;10.41;100.00;99872.28;5087842;28;20137;-62
2023/09/22 06:09:31;;;;;;;22.75;10.27;;;;;;;10.41;100.00;99872.28;5092921;28;20161;-61
2023/09/22 06:11:56;;;;;;;22.50;9.77;;;;;;;10.45;100.00;99878.38;5093372;28;20051;-62
2023/09/22 06:14:22;;;;;;;23.58;10.30;;;;;;;10.48;100.00;99880.13;5093045;28;20468;-63
2023/09/22 06:16:49;;;;;;;23.60;9.80;;;;;;;10.49;100.00;99889.81;5092639;28;20059;-62
2023/09/22 06:19:15;;;;;;;22.77;10.35;;;;;;;10.50;100.00;99881.88;5093212;28;20043;-61
2023/09/22 06:21:40;;;;;;;22.85;10.07;;;;;;;10.50;100.00;99876.59;5092333;28;20032;-61
2023/09/22 06:24:06;;;;;;;22.30;9.55;;;;;;;10.55;100.00;99881.81;5094278;28;20475;-74
2023/09/22 06:26:32;;;;;;;21.58;9.50;;;;;;;10.58;100.00;99892.34;5092937;28;20036;-75
2023/09/22 06:28:57;;;;;;;22.45;9.65;;;;;;;10.61;100.00;99889.69;5093079;28;20024;-71
2023/09/22 06:31:23;;;;;;;23.15;9.30;;;;;;;10.66;100.00;99889.63;5092813;28;20032;-71
2023/09/22 06:33:49;;;;;;;22.42;9.45;;;;;;;10.68;100.00;99895.78;5091021;28;20035;-71
2023/09/22 06:36:15;;;;;;;22.58;9.63;;;;;;;10.71;100.00;99906.31;5092770;28;20050;-67
2023/09/22 06:38:41;;;;;;;22.58;8.75;;;;;;;10.76;100.00;99894.81;5092865;28;20463;-71
2023/09/22 06:41:06;;;;;;;19.67;8.30;;;;;;;10.79;100.00;99893.88;5092775;28;20035;-73
2023/09/22 06:43:33;;;;;;;22.38;9.07;;;;;;;10.85;100.00;99895.56;5093329;28;20055;-69
2023/09/22 06:46:03;;;;;;;20.83;8.43;;;;;;;10.89;100.00;99900.81;5092807;28;20474;-69
2023/09/22 06:48:29;;;;;;;20.48;8.20;;;;;;;10.91;100.00;99909.59;5092749;28;20078;-71
2023/09/22 06:50:57;;;;;;;20.23;7.43;;;;;;;10.94;100.00;99908.69;5093331;28;20043;-67
2023/09/22 06:53:26;;;;;;;20.15;6.80;;;;;;;10.95;100.00;99921.91;5092801;28;20138;-70
2023/09/22 06:56:09;;;;;;;19.70;6.90;;;;;;;10.99;100.00;99913.03;5092765;28;20467;-70
2023/09/22 06:58:36;;;;;;;20.35;6.97;;;;;;;11.01;100.00;99913.03;5093245;28;20055;-71
2023/09/22 07:01:13;;;;;;;19.67;6.75;;;;;;;11.10;100.00;99926.13;5093024;28;20046;-70
2023/09/22 07:03:39;;;;;;;19.10;6.38;;;;;;;11.21;100.00;99927.75;5092527;28;20031;-71
2023/09/22 07:06:07;;;;;;;19.42;6.22;;;;;;;11.19;100.00;99926.91;5088602;28;20054;-77
2023/09/22 07:08:34;;;;;;;17.92;5.80;;;;;;;11.22;100.00;99929.50;5092461;28;20024;-79
2023/09/22 07:11:03;;;;;;;18.17;5.80;;;;;;;11.28;100.00;99932.94;5092314;28;20035;-63
2023/09/22 07:13:29;;;;;;;16.83;5.30;;;;;;;11.29;100.00;99933.81;5092469;28;20028;-62
2023/09/22 07:15:58;;;;;;;16.55;5.03;;;;;;;11.35;100.00;99931.09;5092221;28;20052;-61
2023/09/22 07:18:24;;;;;;;15.82;4.85;;;;;;;11.39;100.00;99931.91;5081899;28;20032;-61
2023/09/22 07:20:50;;;;;;;16.98;4.57;;;;;;;11.44;100.00;99941.53;5079703;28;20052;-62
2023/09/22 07:23:15;;;;;;;14.00;4.28;;;;;;;11.48;100.00;99942.41;5091124;28;20136;-66
2023/09/22 07:25:41;;;;;;;15.35;4.07;;;;;;;11.54;100.00;99947.59;5092423;28;20055;-66
2023/09/22 07:28:08;;;;;;;14.95;3.90;;;;;;;11.59;100.00;99951.06;5092432;28;20032;-67
2023/09/22 07:30:34;;;;;;;12.88;3.63;;;;;;;11.61;100.00;99943.97;5092129;28;20032;-66
2023/09/22 07:33:00;;;;;;;13.15;3.50;;;;;;;11.61;100.00;99948.41;5092222;28;20035;-63
2023/09/22 07:35:26;;;;;;;13.60;3.47;;;;;;;11.67;100.00;99964.19;5095615;28;20437;-63
2023/09/22 07:37:51;;;;;;;11.43;3.35;;;;;;;11.71;100.00;99955.31;5091390;28;20033;-62
2023/09/22 07:40:17;;;;;;;10.55;3.40;;;;;;;11.75;100.00;99967.63;5096074;28;20032;-62
2023/09/22 07:42:44;;;;;;;12.85;3.35;;;;;;;11.81;100.00;99959.56;5096430;28;20028;-62
2023/09/22 07:45:11;;;;;;;10.57;3.13;;;;;;;11.83;100.00;99973.66;5095629;28;20031;-62
2023/09/22 07:47:37;;;;;;;10.25;3.10;;;;;;;11.89;100.00;99969.19;5095627;28;20028;-62
2023/09/22 07:50:04;;;;;;;11.18;3.15;;;;;;;11.90;100.00;99993.00;5095967;28;20356;-62
2023/09/22 07:52:29;;;;;;;10.65;3.00;;;;;;;11.94;100.00;99970.00;5095735;28;20451;-68
2023/09/22 07:54:56;;;;;;;11.68;2.97;;;;;;;12.04;100.00;99979.56;5095644;28;20057;-70
2023/09/22 07:57:21;;;;;;;8.80;2.60;;;;;;;12.07;100.00;99979.50;5096046;28;20074;-63
2023/09/22 07:59:47;;;;;;;8.77;2.60;;;;;;;12.18;100.00;99982.00;5095891;28;20424;-65
2023/09/22 08:02:12;;;;;;;9.82;2.60;;;;;;;12.20;100.00;99981.09;5095516;28;20035;-64
2023/09/22 08:04:38;;;;;;;6.68;2.50;;;;;;;12.32;100.00;99979.09;5095657;28;20035;-65
2023/09/22 08:07:05;;;;;;;7.40;2.30;;;;;;;12.45;100.00;99985.97;5095873;28;20360;-65
2023/09/22 08:09:31;;;;;;;10.40;2.30;;;;;;;12.56;100.00;99973.38;5095367;28;20024;-65
2023/09/22 08:11:56;;;;;;;7.65;2.25;;;;;;;12.69;100.00;99978.50;5090109;28;20035;-61
2023/09/22 08:14:23;;;;;;;7.35;2.40;;;;;;;12.80;100.00;99955.31;5085548;28;20024;-62
2023/09/22 08:16:49;;;;;;;11.27;2.50;;;;;;;13.01;100.00;99958.44;5084427;28;20067;-64
2023/09/22 08:19:14;;;;;;;7.10;2.22;;;;;;;13.24;100.00;99968.59;5084840;28;20036;-61
2023/09/22 08:21:40;;;;;;;5.72;2.20;;;;;;;13.36;100.00;99968.38;5085037;28;20486;-60
2023/09/22 08:24:07;;;;;;;6.25;2.10;;;;;;;13.43;100.00;99961.16;5084280;28;20429;-61
2023/09/22 08:26:33;;;;;;;5.47;2.00;;;;;;;13.44;100.00;99960.25;5084493;28;20522;-62
2023/09/22 08:29:00;;;;;;;12.00;2.20;;;;;;;13.54;100.00;99968.88;5083589;28;20020;-62
2023/09/22 08:31:26;;;;;;;7.75;2.35;;;;;;;13.63;100.00;99963.38;5082525;28;20040;-61
2023/09/22 08:33:52;;;;;;;6.60;2.30;;;;;;;13.80;100.00;99978.06;5084472;28;20032;-62
2023/09/22 08:36:17;;;;;;;5.50;1.90;;;;;;;13.90;100.00;99966.31;5083743;28;20464;-62
2023/09/22 08:38:43;;;;;;;8.15;2.20;;;;;;;14.00;100.00;99974.94;5084607;28;20024;-65
2023/09/22 08:41:08;;;;;;;6.85;2.22;;;;;;;14.28;100.00;99964.50;5084776;28;20070;-63
2023/09/22 08:43:35;;;;;;;5.57;2.00;;;;;;;14.66;100.00;99968.00;5092591;28;20548;-62
2023/09/22 08:46:01;;;;;;;5.20;2.20;;;;;;;14.79;100.00;99971.22;5094536;28;20024;-62
2023/09/22 08:48:27;;;;;;;5.10;1.98;;;;;;;14.81;100.00;99972.91;5085162;28;20039;-62
2023/09/22 08:50:53;;;;;;;3.47;2.00;;;;;;;14.70;100.00;99964.34;5088360;28;21053;-64
2023/09/22 08:53:19;;;;;;;7.32;2.20;;;;;;;14.50;100.00;99966.63;5087530;28;20028;-62
2023/09/22 08:55:44;;;;;;;5.93;1.95;;;;;;;14.41;100.00;99973.06;5093947;28;20024;-62
2023/09/22 08:58:10;;;;;;;10.18;2.20;;;;;;;14.18;100.00;99973.63;5094466;28;20035;-61
2023/09/22 09:00:35;;;;;;;6.63;2.00;;;;;;;14.25;100.00;99977.88;5094484;28;20028;-63
2023/09/22 09:03:10;;;;;;;7.35;2.10;;;;;;;14.84;100.00;99979.97;5094410;28;20035;-62
2023/09/22 09:05:38;;;;;;;6.32;2.08;;;;;;;14.55;100.00;99978.03;5094401;28;20039;-62
2023/09/22 09:08:18;;;;;;;6.38;1.92;;;;;;;14.69;100.00;99977.69;5081825;28;20071;-65
2023/09/22 09:10:46;;;;;;;6.90;2.03;;;;;;;15.49;100.00;99978.13;5094433;28;20085;-64
2023/09/22 09:13:27;;;;;;;5.47;1.90;;;;;;;15.52;100.00;99976.25;5094190;28;20550;-66
2023/09/22 09:15:54;;;;;;;9.60;2.00;;;;;;;15.03;100.00;99977.66;5093829;28;20131;-64
2023/09/22 09:18:22;;;;;;;5.72;2.00;;;;;;;15.16;100.00;99975.53;5094083;28;20173;-63
2023/09/22 09:21:05;;;;;;;5.38;2.00;;;;;;;15.54;100.00;99993.97;5087282;28;20028;-62
2023/09/22 09:23:31;;;;;;;6.22;1.95;;;;;;;15.42;100.00;99973.88;5090266;28;20489;-62
2023/09/22 09:25:56;;;;;;;5.35;1.70;;;;;;;15.74;100.00;99985.38;5094206;28;20060;-61
2023/09/22 09:28:23;;;;;;;4.93;1.90;;;;;;;15.98;100.00;99989.97;5092605;28;20034;-62
2023/09/22 09:30:57;;;;;;;3.70;1.90;;;;;;;16.08;100.00;99985.22;5093954;28;20035;-62
2023/09/22 09:33:26;;;;;;;4.32;1.60;;;;;;;15.92;100.00;99987.50;5092723;28;20095;-62
2023/09/22 09:35:52;;;;;;;5.30;1.90;;;;;;;15.92;100.00;99989.31;5093783;28;20024;-62
2023/09/22 09:38:24;;;;;;;4.80;1.90;;;;;;;16.42;100.00;99985.94;5093917;28;20032;-62
2023/09/22 09:40:58;;;;;;;4.70;1.83;;;;;;;16.07;100.00;99987.94;5094006;28;20028;-61
2023/09/22 09:43:24;;;;;;;5.88;1.83;;;;;;;16.25;100.00;99995.38;5084307;28;20036;-63
2023/09/22 09:45:53;;;;;;;5.93;1.90;;;;;;;16.81;100.00;100002.38;5083082;28;20036;-62
2023/09/22 09:48:19;;;;;;;8.07;2.00;;;;;;;16.98;100.00;99987.56;5084124;28;20091;-63
2023/09/22 09:50:57;;;;;;;7.45;2.00;;;;;;;17.66;100.00;99991.28;5082001;28;20052;-76
2023/09/22 09:53:43;;;;;;;5.28;1.83;;;;;;;18.10;100.00;99998.50;5080036;28;20099;-81
2023/09/22 09:56:13;;;;;;;6.40;1.85;;;;;;;18.32;100.00;100000.31;5078162;28;20375;-64
2023/09/22 09:58:39;;;;;;;2.58;1.70;;;;;;;18.46;100.00;99998.84;5091994;28;20371;-77
2023/09/22 10:01:05;;;;;;;2.13;1.60;;;;;;;18.54;100.00;99989.63;5093488;28;20028;-81
2023/09/22 10:03:32;;;;;;;6.00;1.70;;;;;;;18.78;100.00;100004.59;5092950;28;20439;-81
2023/09/22 10:05:58;;;;;;;5.13;1.83;;;;;;;18.93;100.00;100012.94;5092910;28;20028;-81
2023/09/22 10:08:26;;;;;;;6.60;1.98;;;;;;;18.80;100.00;99996.53;5093074;28;20035;-79
2023/09/22 10:11:01;;;;;;;4.45;1.80;;;;;;;18.90;100.00;99979.16;5093034;28;20044;-83
2023/09/22 10:13:27;;;;;;;5.25;1.85;;;;;;;19.25;100.00;99982.09;5089799;28;20081;-80
2023/09/22 10:15:54;;;;;;;3.53;1.80;;;;;;;19.43;100.00;99991.06;5093055;28;20048;-82
2023/09/22 10:18:21;;;;;;;4.50;1.90;;;;;;;19.52;100.00;99982.59;5089267;28;20054;-77
2023/09/22 10:20:47;;;;;;;3.15;1.80;;;;;;;20.12;100.00;99991.47;5093292;28;20032;-79
2023/09/22 10:23:17;;;;;;;6.20;2.00;;;;;;;19.44;100.00;99998.19;5093356;28;20588;-82
2023/09/22 10:26:03;;;;;;;5.22;1.83;;;;;;;19.22;100.00;99975.97;5091927;28;20476;-78
2023/09/22 10:28:28;;;;;;;5.40;1.85;;;;;;;19.51;100.00;99972.84;5090486;28;20036;-82
2023/09/22 10:30:54;;;;;;;5.38;1.80;;;;;;;20.41;100.00;99990.03;5092916;28;20119;-81
2023/09/22 10:33:22;;;;;;;6.32;2.00;;;;;;;20.64;100.00;99971.91;5093082;28;20399;-77
2023/09/22 10:35:47;;;;;;;4.97;1.70;;;;;;;20.58;100.00;99978.44;5093140;28;20115;-82
2023/09/22 10:38:14;;;;;;;4.82;1.88;;;;;;;20.91;100.00;99977.66;5092880;28;20119;-63
2023/09/22 10:40:59;;;;;;;4.40;1.73;;;;;;;21.33;100.00;99988.91;5091836;28;20126;-66
2023/09/22 10:43:36;;;;;;;6.45;1.90;;;;;;;21.55;100.00;99978.78;5089722;28;20024;-65
2023/09/22 10:46:01;;;;;;;5.05;2.00;;;;;;;21.44;100.00;99981.13;5092974;28;20464;-65
2023/09/22 10:48:35;;;;;;;3.70;1.80;;;;;;;21.74;100.00;99983.09;5092865;28;20086;-64
2023/09/22 10:51:02;;;;;;;3.47;1.77;;;;;;;21.70;100.00;99989.63;5090319;28;20031;-64
2023/09/22 10:53:27;;;;;;;6.35;1.80;;;;;;;21.85;100.00;99980.69;5087940;28;20028;-60
2023/09/22 10:55:57;;;;;;;4.80;1.80;;;;;;;22.19;100.00;99983.28;5092546;28;20115;-62
2023/09/22 10:58:26;;;;;;;5.63;1.88;;;;;;;20.73;100.00;99982.19;5082581;28;20028;-64
2023/09/22 11:00:55;;;;;;;5.22;1.80;;;;;;;19.91;100.00;99988.03;5082363;28;20487;-63
2023/09/22 11:03:21;;;;;;;4.93;1.90;;;;;;;19.73;100.00;99989.72;5080215;28;20100;-62
2023/09/22 11:05:56;;;;;;;3.88;1.90;;;;;;;18.76;100.00;99990.44;5091888;28;20111;-65
2023/09/22 11:08:23;;;;;;;6.13;1.80;;;;;;;17.87;100.00;99983.38;5087089;28;20028;-62
2023/09/22 11:10:50;;;;;;;8.43;2.00;;;;;;;17.74;100.00;99973.16;5086110;28;20355;-63
2023/09/22 11:13:16;;;;;;;5.72;2.00;;;;;;;17.88;100.00;99980.66;5086144;28;20035;-62